sensor_id;sensor_type;location;lat;lon;timestamp;P1;durP1;ratioP1;P2;durP2;ratioP2
15708;SDS011;7954;51.914;8.420;2023-02-15T00:00:07;11.47;;;5.87;;
15708;SDS011;7954;51.914;8.420;2023-02-15T00:02:36;7.10;;;6.40;;
15708;SDS011;7954;51.914;8.420;2023-02-15T00:05:07;6.40;;;5.80;;
15708;SDS011;7954;51.914;8.420;2023-02-15T00:07:36;6.63;;;5.90;;
15708;SDS011;7954;51.914;8.420;2023-02-15T00:10:04;8.43;;;6.20;;
15708;SDS011;7954;51.914;8.420;2023-02-15T00:12:33;6.23;;;5.63;;
15708;SDS011;7954;51.914;8.420;2023-02-15T00:15:01;6.90;;;6.00;;
15708;SDS011;7954;51.914;8.420;2023-02-15T00:17:29;6.07;;;5.47;;
15708;SDS011;7954;51.914;8.420;2023-02-15T00:19:57;5.90;;;5.37;;
15708;SDS011;7954;51.914;8.420;2023-02-15T00:22:26;6.73;;;6.03;;
15708;SDS011;7954;51.914;8.420;2023-02-15T00:24:54;6.60;;;6.00;;
15708;SDS011;7954;51.914;8.420;2023-02-15T00:27:22;7.50;;;5.77;;
15708;SDS011;7954;51.914;8.420;2023-02-15T00:29:50;6.13;;;5.53;;
15708;SDS011;7954;51.914;8.420;2023-02-15T00:32:18;7.13;;;5.63;;
15708;SDS011;7954;51.914;8.420;2023-02-15T00:34:47;6.00;;;5.40;;
15708;SDS011;7954;51.914;8.420;2023-02-15T00:37:15;7.40;;;5.80;;
15708;SDS011;7954;51.914;8.420;2023-02-15T00:39:44;5.57;;;5.07;;
15708;SDS011;7954;51.914;8.420;2023-02-15T00:42:12;6.30;;;5.70;;
15708;SDS011;7954;51.914;8.420;2023-02-15T00:44:40;6.30;;;5.70;;
15708;SDS011;7954;51.914;8.420;2023-02-15T00:47:09;5.80;;;5.20;;
15708;SDS011;7954;51.914;8.420;2023-02-15T00:49:37;6.13;;;5.53;;
15708;SDS011;7954;51.914;8.420;2023-02-15T00:52:05;6.20;;;5.60;;
15708;SDS011;7954;51.914;8.420;2023-02-15T00:54:33;6.17;;;5.27;;
15708;SDS011;7954;51.914;8.420;2023-02-15T00:57:03;5.97;;;5.37;;
15708;SDS011;7954;51.914;8.420;2023-02-15T00:59:31;6.20;;;5.37;;
15708;SDS011;7954;51.914;8.420;2023-02-15T01:01:59;6.17;;;5.50;;
15708;SDS011;7954;51.914;8.420;2023-02-15T01:04:51;6.30;;;5.67;;
15708;SDS011;7954;51.914;8.420;2023-02-15T01:07:19;6.17;;;5.57;;
15708;SDS011;7954;51.914;8.420;2023-02-15T01:09:47;5.80;;;5.27;;
15708;SDS011;7954;51.914;8.420;2023-02-15T01:12:17;6.33;;;5.73;;
15708;SDS011;7954;51.914;8.420;2023-02-15T01:14:45;6.80;;;6.00;;
15708;SDS011;7954;51.914;8.420;2023-02-15T01:17:13;6.50;;;5.80;;
15708;SDS011;7954;51.914;8.420;2023-02-15T01:19:41;6.10;;;5.50;;
15708;SDS011;7954;51.914;8.420;2023-02-15T01:22:09;6.50;;;5.83;;
15708;SDS011;7954;51.914;8.420;2023-02-15T01:24:37;6.57;;;5.87;;
15708;SDS011;7954;51.914;8.420;2023-02-15T01:27:05;6.67;;;5.80;;
15708;SDS011;7954;51.914;8.420;2023-02-15T01:29:34;6.30;;;5.70;;
15708;SDS011;7954;51.914;8.420;2023-02-15T01:32:02;6.77;;;6.03;;
15708;SDS011;7954;51.914;8.420;2023-02-15T01:34:31;5.97;;;5.37;;
15708;SDS011;7954;51.914;8.420;2023-02-15T01:36:59;6.47;;;5.87;;
15708;SDS011;7954;51.914;8.420;2023-02-15T01:39:27;6.77;;;5.83;;
15708;SDS011;7954;51.914;8.420;2023-02-15T01:41:55;6.23;;;5.63;;
15708;SDS011;7954;51.914;8.420;2023-02-15T01:47:26;6.10;;;5.50;;
15708;SDS011;7954;51.914;8.420;2023-02-15T01:50:08;6.43;;;5.80;;
15708;SDS011;7954;51.914;8.420;2023-02-15T01:52:42;6.30;;;5.70;;
15708;SDS011;7954;51.914;8.420;2023-02-15T01:55:16;6.77;;;6.07;;
15708;SDS011;7954;51.914;8.420;2023-02-15T01:57:44;6.07;;;5.47;;
15708;SDS011;7954;51.914;8.420;2023-02-15T02:00:16;7.27;;;6.47;;
15708;SDS011;7954;51.914;8.420;2023-02-15T02:02:45;7.10;;;5.43;;
15708;SDS011;7954;51.914;8.420;2023-02-15T02:05:19;7.03;;;6.00;;
15708;SDS011;7954;51.914;8.420;2023-02-15T02:07:48;5.90;;;5.40;;
15708;SDS011;7954;51.914;8.420;2023-02-15T02:10:19;6.37;;;5.77;;
15708;SDS011;7954;51.914;8.420;2023-02-15T02:12:50;6.53;;;5.80;;
15708;SDS011;7954;51.914;8.420;2023-02-15T02:15:23;6.10;;;5.50;;
15708;SDS011;7954;51.914;8.420;2023-02-15T02:18:00;6.10;;;5.53;;
15708;SDS011;7954;51.914;8.420;2023-02-15T02:20:43;6.40;;;5.77;;
15708;SDS011;7954;51.914;8.420;2023-02-15T02:23:24;6.53;;;5.70;;
15708;SDS011;7954;51.914;8.420;2023-02-15T02:26:25;6.00;;;5.40;;
15708;SDS011;7954;51.914;8.420;2023-02-15T02:35:10;6.07;;;5.33;;
15708;SDS011;7954;51.914;8.420;2023-02-15T02:37:45;6.80;;;6.20;;
15708;SDS011;7954;51.914;8.420;2023-02-15T02:40:20;7.33;;;6.20;;
15708;SDS011;7954;51.914;8.420;2023-02-15T02:42:59;7.53;;;5.70;;
15708;SDS011;7954;51.914;8.420;2023-02-15T02:45:31;6.83;;;6.13;;
15708;SDS011;7954;51.914;8.420;2023-02-15T02:48:09;6.27;;;5.67;;
15708;SDS011;7954;51.914;8.420;2023-02-15T02:50:42;6.53;;;5.50;;
15708;SDS011;7954;51.914;8.420;2023-02-15T02:53:10;6.70;;;6.00;;
15708;SDS011;7954;51.914;8.420;2023-02-15T02:55:40;6.87;;;5.97;;
15708;SDS011;7954;51.914;8.420;2023-02-15T02:58:14;7.87;;;6.20;;
15708;SDS011;7954;51.914;8.420;2023-02-15T03:00:46;6.57;;;5.87;;
15708;SDS011;7954;51.914;8.420;2023-02-15T03:03:19;5.80;;;5.27;;
15708;SDS011;7954;51.914;8.420;2023-02-15T03:05:54;5.90;;;5.30;;
15708;SDS011;7954;51.914;8.420;2023-02-15T03:08:29;6.20;;;5.60;;
15708;SDS011;7954;51.914;8.420;2023-02-15T03:11:02;7.33;;;6.63;;
15708;SDS011;7954;51.914;8.420;2023-02-15T03:13:31;6.23;;;5.63;;
15708;SDS011;7954;51.914;8.420;2023-02-15T03:16:00;6.37;;;5.70;;
15708;SDS011;7954;51.914;8.420;2023-02-15T03:18:47;6.10;;;5.50;;
15708;SDS011;7954;51.914;8.420;2023-02-15T03:21:20;6.50;;;5.87;;
15708;SDS011;7954;51.914;8.420;2023-02-15T03:23:52;6.07;;;5.47;;
15708;SDS011;7954;51.914;8.420;2023-02-15T03:26:24;6.03;;;5.37;;
15708;SDS011;7954;51.914;8.420;2023-02-15T03:28:55;6.40;;;5.80;;
15708;SDS011;7954;51.914;8.420;2023-02-15T03:31:26;6.33;;;5.73;;
15708;SDS011;7954;51.914;8.420;2023-02-15T03:34:00;6.47;;;5.80;;
15708;SDS011;7954;51.914;8.420;2023-02-15T03:36:34;6.77;;;6.17;;
15708;SDS011;7954;51.914;8.420;2023-02-15T03:39:10;7.00;;;6.10;;
15708;SDS011;7954;51.914;8.420;2023-02-15T03:41:45;6.73;;;5.93;;
15708;SDS011;7954;51.914;8.420;2023-02-15T03:44:22;7.27;;;5.70;;
15708;SDS011;7954;51.914;8.420;2023-02-15T03:46:56;6.07;;;5.47;;
15708;SDS011;7954;51.914;8.420;2023-02-15T03:49:28;6.93;;;6.00;;
15708;SDS011;7954;51.914;8.420;2023-02-15T03:52:03;6.03;;;5.50;;
15708;SDS011;7954;51.914;8.420;2023-02-15T03:54:33;6.93;;;6.23;;
15708;SDS011;7954;51.914;8.420;2023-02-15T03:57:17;6.47;;;5.87;;
15708;SDS011;7954;51.914;8.420;2023-02-15T04:00:08;7.27;;;6.57;;
15708;SDS011;7954;51.914;8.420;2023-02-15T04:03:08;7.10;;;6.40;;
15708;SDS011;7954;51.914;8.420;2023-02-15T04:05:44;6.23;;;5.60;;
15708;SDS011;7954;51.914;8.420;2023-02-15T04:08:13;6.17;;;5.57;;
15708;SDS011;7954;51.914;8.420;2023-02-15T04:10:42;7.30;;;6.00;;
15708;SDS011;7954;51.914;8.420;2023-02-15T04:13:23;7.23;;;6.53;;
15708;SDS011;7954;51.914;8.420;2023-02-15T04:15:53;6.90;;;6.20;;
15708;SDS011;7954;51.914;8.420;2023-02-15T04:18:31;6.27;;;5.57;;
15708;SDS011;7954;51.914;8.420;2023-02-15T04:21:18;6.40;;;5.80;;
15708;SDS011;7954;51.914;8.420;2023-02-15T04:24:05;6.10;;;5.50;;
15708;SDS011;7954;51.914;8.420;2023-02-15T04:26:51;6.37;;;5.77;;
15708;SDS011;7954;51.914;8.420;2023-02-15T04:29:20;6.20;;;5.60;;
15708;SDS011;7954;51.914;8.420;2023-02-15T04:31:49;5.70;;;5.10;;
15708;SDS011;7954;51.914;8.420;2023-02-15T04:34:17;5.77;;;5.20;;
15708;SDS011;7954;51.914;8.420;2023-02-15T04:36:44;6.40;;;5.80;;
15708;SDS011;7954;51.914;8.420;2023-02-15T04:39:14;7.00;;;6.20;;
15708;SDS011;7954;51.914;8.420;2023-02-15T04:41:43;6.30;;;5.47;;
15708;SDS011;7954;51.914;8.420;2023-02-15T04:44:10;7.10;;;6.40;;
15708;SDS011;7954;51.914;8.420;2023-02-15T04:46:38;8.00;;;6.40;;
15708;SDS011;7954;51.914;8.420;2023-02-15T04:49:07;5.90;;;5.30;;
15708;SDS011;7954;51.914;8.420;2023-02-15T04:51:36;7.27;;;6.33;;
15708;SDS011;7954;51.914;8.420;2023-02-15T04:54:04;6.67;;;5.97;;
15708;SDS011;7954;51.914;8.420;2023-02-15T04:56:33;6.10;;;5.50;;
15708;SDS011;7954;51.914;8.420;2023-02-15T04:59:03;7.03;;;6.00;;
15708;SDS011;7954;51.914;8.420;2023-02-15T05:01:32;6.17;;;5.57;;
15708;SDS011;7954;51.914;8.420;2023-02-15T05:04:00;6.50;;;5.90;;
15708;SDS011;7954;51.914;8.420;2023-02-15T05:06:27;6.50;;;5.90;;
15708;SDS011;7954;51.914;8.420;2023-02-15T05:08:56;6.70;;;6.07;;
15708;SDS011;7954;51.914;8.420;2023-02-15T05:11:25;7.10;;;6.40;;
15708;SDS011;7954;51.914;8.420;2023-02-15T05:13:55;5.97;;;5.37;;
15708;SDS011;7954;51.914;8.420;2023-02-15T05:16:23;7.23;;;6.53;;
15708;SDS011;7954;51.914;8.420;2023-02-15T05:18:52;6.33;;;5.73;;
15708;SDS011;7954;51.914;8.420;2023-02-15T05:21:20;6.17;;;5.57;;
15708;SDS011;7954;51.914;8.420;2023-02-15T05:23:48;7.50;;;6.43;;
15708;SDS011;7954;51.914;8.420;2023-02-15T05:26:17;6.40;;;5.80;;
15708;SDS011;7954;51.914;8.420;2023-02-15T05:29:05;6.43;;;5.73;;
15708;SDS011;7954;51.914;8.420;2023-02-15T05:31:34;6.60;;;5.90;;
15708;SDS011;7954;51.914;8.420;2023-02-15T05:34:02;5.93;;;5.33;;
15708;SDS011;7954;51.914;8.420;2023-02-15T05:36:30;6.90;;;6.20;;
15708;SDS011;7954;51.914;8.420;2023-02-15T05:38:59;6.37;;;5.77;;
15708;SDS011;7954;51.914;8.420;2023-02-15T05:41:28;6.67;;;6.00;;
15708;SDS011;7954;51.914;8.420;2023-02-15T05:43:56;7.33;;;6.30;;
15708;SDS011;7954;51.914;8.420;2023-02-15T05:46:25;6.67;;;5.87;;
15708;SDS011;7954;51.914;8.420;2023-02-15T05:48:53;6.87;;;6.17;;
15708;SDS011;7954;51.914;8.420;2023-02-15T05:51:21;6.47;;;5.37;;
15708;SDS011;7954;51.914;8.420;2023-02-15T05:53:49;8.23;;;6.40;;
15708;SDS011;7954;51.914;8.420;2023-02-15T05:56:17;6.07;;;5.47;;
15708;SDS011;7954;51.914;8.420;2023-02-15T05:58:45;6.53;;;5.93;;
15708;SDS011;7954;51.914;8.420;2023-02-15T06:01:14;6.57;;;5.63;;
15708;SDS011;7954;51.914;8.420;2023-02-15T06:03:45;7.73;;;6.93;;
15708;SDS011;7954;51.914;8.420;2023-02-15T06:06:13;7.00;;;6.30;;
15708;SDS011;7954;51.914;8.420;2023-02-15T06:08:43;8.03;;;7.23;;
15708;SDS011;7954;51.914;8.420;2023-02-15T06:11:12;8.47;;;7.40;;
15708;SDS011;7954;51.914;8.420;2023-02-15T06:13:39;8.20;;;7.40;;
15708;SDS011;7954;51.914;8.420;2023-02-15T06:16:08;8.17;;;7.33;;
15708;SDS011;7954;51.914;8.420;2023-02-15T06:18:35;6.37;;;5.77;;
15708;SDS011;7954;51.914;8.420;2023-02-15T06:21:05;8.40;;;7.60;;
15708;SDS011;7954;51.914;8.420;2023-02-15T06:23:33;9.03;;;7.80;;
15708;SDS011;7954;51.914;8.420;2023-02-15T06:26:01;15.27;;;11.73;;
15708;SDS011;7954;51.914;8.420;2023-02-15T06:28:30;13.80;;;11.07;;
15708;SDS011;7954;51.914;8.420;2023-02-15T06:30:58;12.60;;;10.47;;
15708;SDS011;7954;51.914;8.420;2023-02-15T06:33:26;12.23;;;9.83;;
15708;SDS011;7954;51.914;8.420;2023-02-15T06:35:56;13.13;;;10.23;;
15708;SDS011;7954;51.914;8.420;2023-02-15T06:38:27;12.13;;;10.00;;
15708;SDS011;7954;51.914;8.420;2023-02-15T06:40:55;11.90;;;9.30;;
15708;SDS011;7954;51.914;8.420;2023-02-15T06:43:23;10.67;;;9.20;;
15708;SDS011;7954;51.914;8.420;2023-02-15T06:45:51;12.23;;;9.50;;
15708;SDS011;7954;51.914;8.420;2023-02-15T06:48:20;8.60;;;7.63;;
15708;SDS011;7954;51.914;8.420;2023-02-15T06:50:48;9.60;;;7.87;;
15708;SDS011;7954;51.914;8.420;2023-02-15T06:53:16;9.63;;;6.93;;
15708;SDS011;7954;51.914;8.420;2023-02-15T06:55:46;7.93;;;7.03;;
15708;SDS011;7954;51.914;8.420;2023-02-15T06:58:14;7.73;;;6.93;;
15708;SDS011;7954;51.914;8.420;2023-02-15T07:00:42;8.93;;;7.40;;
15708;SDS011;7954;51.914;8.420;2023-02-15T07:03:12;8.40;;;7.50;;
15708;SDS011;7954;51.914;8.420;2023-02-15T07:05:43;8.53;;;7.20;;
15708;SDS011;7954;51.914;8.420;2023-02-15T07:08:13;8.97;;;7.97;;
15708;SDS011;7954;51.914;8.420;2023-02-15T07:10:43;9.43;;;8.53;;
15708;SDS011;7954;51.914;8.420;2023-02-15T07:13:12;9.33;;;8.33;;
15708;SDS011;7954;51.914;8.420;2023-02-15T07:15:39;9.63;;;8.63;;
15708;SDS011;7954;51.914;8.420;2023-02-15T07:18:07;8.17;;;7.37;;
15708;SDS011;7954;51.914;8.420;2023-02-15T07:20:37;8.43;;;6.43;;
15708;SDS011;7954;51.914;8.420;2023-02-15T07:23:07;7.33;;;6.63;;
15708;SDS011;7954;51.914;8.420;2023-02-15T07:25:35;8.03;;;6.70;;
15708;SDS011;7954;51.914;8.420;2023-02-15T07:28:06;6.67;;;6.03;;
15708;SDS011;7954;51.914;8.420;2023-02-15T07:30:37;7.17;;;6.40;;
15708;SDS011;7954;51.914;8.420;2023-02-15T07:33:06;6.90;;;6.20;;
15708;SDS011;7954;51.914;8.420;2023-02-15T07:35:54;7.77;;;6.97;;
15708;SDS011;7954;51.914;8.420;2023-02-15T07:38:25;8.00;;;7.20;;
15708;SDS011;7954;51.914;8.420;2023-02-15T07:40:57;10.27;;;8.60;;
15708;SDS011;7954;51.914;8.420;2023-02-15T07:43:25;8.67;;;7.87;;
15708;SDS011;7954;51.914;8.420;2023-02-15T07:45:55;9.87;;;8.30;;
15708;SDS011;7954;51.914;8.420;2023-02-15T07:48:27;9.03;;;8.13;;
15708;SDS011;7954;51.914;8.420;2023-02-15T07:50:58;8.20;;;7.13;;
15708;SDS011;7954;51.914;8.420;2023-02-15T07:53:26;8.07;;;7.27;;
15708;SDS011;7954;51.914;8.420;2023-02-15T07:55:54;7.50;;;6.70;;
15708;SDS011;7954;51.914;8.420;2023-02-15T07:58:26;8.73;;;6.57;;
15708;SDS011;7954;51.914;8.420;2023-02-15T08:01:09;7.77;;;6.97;;
15708;SDS011;7954;51.914;8.420;2023-02-15T08:03:38;7.27;;;6.57;;
15708;SDS011;7954;51.914;8.420;2023-02-15T08:06:06;7.20;;;6.50;;
15708;SDS011;7954;51.914;8.420;2023-02-15T08:08:34;7.97;;;7.00;;
15708;SDS011;7954;51.914;8.420;2023-02-15T08:11:04;8.10;;;7.27;;
15708;SDS011;7954;51.914;8.420;2023-02-15T08:13:51;7.80;;;7.03;;
15708;SDS011;7954;51.914;8.420;2023-02-15T08:16:26;7.87;;;7.10;;
15708;SDS011;7954;51.914;8.420;2023-02-15T08:18:56;7.63;;;6.50;;
15708;SDS011;7954;51.914;8.420;2023-02-15T08:21:26;8.17;;;7.33;;
15708;SDS011;7954;51.914;8.420;2023-02-15T08:23:56;7.90;;;6.97;;
15708;SDS011;7954;51.914;8.420;2023-02-15T08:26:25;8.27;;;7.20;;
15708;SDS011;7954;51.914;8.420;2023-02-15T08:28:53;7.37;;;6.67;;
15708;SDS011;7954;51.914;8.420;2023-02-15T08:31:23;7.57;;;6.87;;
15708;SDS011;7954;51.914;8.420;2023-02-15T08:33:53;7.77;;;6.97;;
15708;SDS011;7954;51.914;8.420;2023-02-15T08:36:23;8.17;;;7.37;;
15708;SDS011;7954;51.914;8.420;2023-02-15T08:38:53;7.90;;;6.70;;
15708;SDS011;7954;51.914;8.420;2023-02-15T08:41:22;7.67;;;6.87;;
15708;SDS011;7954;51.914;8.420;2023-02-15T08:43:52;7.17;;;6.47;;
15708;SDS011;7954;51.914;8.420;2023-02-15T08:46:23;8.53;;;7.40;;
15708;SDS011;7954;51.914;8.420;2023-02-15T08:48:53;7.87;;;7.07;;
15708;SDS011;7954;51.914;8.420;2023-02-15T08:51:22;7.70;;;6.90;;
15708;SDS011;7954;51.914;8.420;2023-02-15T08:53:51;7.50;;;6.70;;
15708;SDS011;7954;51.914;8.420;2023-02-15T08:56:21;6.97;;;6.27;;
15708;SDS011;7954;51.914;8.420;2023-02-15T08:58:52;7.33;;;6.63;;
15708;SDS011;7954;51.914;8.420;2023-02-15T09:01:21;9.13;;;6.87;;
15708;SDS011;7954;51.914;8.420;2023-02-15T09:03:54;7.47;;;6.77;;
15708;SDS011;7954;51.914;8.420;2023-02-15T09:06:24;7.47;;;6.67;;
15708;SDS011;7954;51.914;8.420;2023-02-15T09:08:53;7.53;;;6.77;;
15708;SDS011;7954;51.914;8.420;2023-02-15T09:11:23;7.20;;;6.50;;
15708;SDS011;7954;51.914;8.420;2023-02-15T09:13:54;7.57;;;6.80;;
15708;SDS011;7954;51.914;8.420;2023-02-15T09:16:24;7.97;;;7.17;;
15708;SDS011;7954;51.914;8.420;2023-02-15T09:18:54;7.13;;;6.43;;
15708;SDS011;7954;51.914;8.420;2023-02-15T09:21:24;7.20;;;6.50;;
15708;SDS011;7954;51.914;8.420;2023-02-15T09:23:55;7.37;;;6.67;;
15708;SDS011;7954;51.914;8.420;2023-02-15T09:26:26;7.90;;;7.10;;
15708;SDS011;7954;51.914;8.420;2023-02-15T09:28:56;7.90;;;7.10;;
15708;SDS011;7954;51.914;8.420;2023-02-15T09:31:26;7.53;;;6.53;;
15708;SDS011;7954;51.914;8.420;2023-02-15T09:33:57;6.63;;;6.03;;
15708;SDS011;7954;51.914;8.420;2023-02-15T09:36:27;6.90;;;6.27;;
15708;SDS011;7954;51.914;8.420;2023-02-15T09:38:58;7.20;;;6.50;;
15708;SDS011;7954;51.914;8.420;2023-02-15T09:41:46;7.40;;;6.60;;
15708;SDS011;7954;51.914;8.420;2023-02-15T09:44:31;7.10;;;6.40;;
15708;SDS011;7954;51.914;8.420;2023-02-15T09:47:17;7.50;;;6.70;;
15708;SDS011;7954;51.914;8.420;2023-02-15T09:50:00;6.83;;;6.23;;
15708;SDS011;7954;51.914;8.420;2023-02-15T09:52:46;8.40;;;7.40;;
15708;SDS011;7954;51.914;8.420;2023-02-15T09:55:34;7.40;;;6.53;;
15708;SDS011;7954;51.914;8.420;2023-02-15T09:58:11;7.50;;;6.80;;
15708;SDS011;7954;51.914;8.420;2023-02-15T10:00:49;7.80;;;6.63;;
15708;SDS011;7954;51.914;8.420;2023-02-15T10:03:27;7.73;;;6.43;;
15708;SDS011;7954;51.914;8.420;2023-02-15T10:06:26;7.60;;;6.57;;
15708;SDS011;7954;51.914;8.420;2023-02-15T10:09:12;7.30;;;6.60;;
15708;SDS011;7954;51.914;8.420;2023-02-15T10:11:53;7.83;;;7.07;;
15708;SDS011;7954;51.914;8.420;2023-02-15T10:14:51;7.40;;;6.50;;
15708;SDS011;7954;51.914;8.420;2023-02-15T10:17:35;7.17;;;6.47;;
15708;SDS011;7954;51.914;8.420;2023-02-15T10:20:17;7.67;;;6.60;;
15708;SDS011;7954;51.914;8.420;2023-02-15T10:22:57;7.50;;;6.80;;
15708;SDS011;7954;51.914;8.420;2023-02-15T10:25:46;8.47;;;7.57;;
15708;SDS011;7954;51.914;8.420;2023-02-15T10:28:18;9.60;;;7.23;;
15708;SDS011;7954;51.914;8.420;2023-02-15T10:30:47;8.73;;;7.40;;
15708;SDS011;7954;51.914;8.420;2023-02-15T10:33:24;7.70;;;6.90;;
15708;SDS011;7954;51.914;8.420;2023-02-15T10:36:05;7.80;;;7.00;;
15708;SDS011;7954;51.914;8.420;2023-02-15T10:38:41;8.93;;;7.20;;
15708;SDS011;7954;51.914;8.420;2023-02-15T10:41:18;7.80;;;7.00;;
15708;SDS011;7954;51.914;8.420;2023-02-15T10:43:59;8.37;;;7.27;;
15708;SDS011;7954;51.914;8.420;2023-02-15T10:49:31;8.57;;;7.73;;
15708;SDS011;7954;51.914;8.420;2023-02-15T10:52:14;8.27;;;7.00;;
15708;SDS011;7954;51.914;8.420;2023-02-15T10:54:58;8.03;;;7.23;;
15708;SDS011;7954;51.914;8.420;2023-02-15T10:57:38;10.40;;;7.40;;
15708;SDS011;7954;51.914;8.420;2023-02-15T11:00:16;7.70;;;6.67;;
15708;SDS011;7954;51.914;8.420;2023-02-15T11:02:53;8.00;;;6.80;;
15708;SDS011;7954;51.914;8.420;2023-02-15T11:05:35;8.67;;;7.70;;
15708;SDS011;7954;51.914;8.420;2023-02-15T11:08:09;8.50;;;7.60;;
15708;SDS011;7954;51.914;8.420;2023-02-15T11:10:41;8.73;;;7.47;;
15708;SDS011;7954;51.914;8.420;2023-02-15T11:13:13;10.20;;;8.23;;
15708;SDS011;7954;51.914;8.420;2023-02-15T11:15:44;8.53;;;7.63;;
15708;SDS011;7954;51.914;8.420;2023-02-15T11:18:27;8.93;;;7.57;;
15708;SDS011;7954;51.914;8.420;2023-02-15T11:21:01;9.57;;;8.40;;
15708;SDS011;7954;51.914;8.420;2023-02-15T11:23:35;8.87;;;7.97;;
15708;SDS011;7954;51.914;8.420;2023-02-15T11:26:10;10.23;;;8.70;;
15708;SDS011;7954;51.914;8.420;2023-02-15T11:28:43;10.20;;;7.73;;
15708;SDS011;7954;51.914;8.420;2023-02-15T11:31:15;8.30;;;7.30;;
15708;SDS011;7954;51.914;8.420;2023-02-15T11:33:47;8.47;;;7.67;;
15708;SDS011;7954;51.914;8.420;2023-02-15T11:36:19;8.60;;;7.37;;
15708;SDS011;7954;51.914;8.420;2023-02-15T11:38:51;8.47;;;7.67;;
15708;SDS011;7954;51.914;8.420;2023-02-15T11:41:28;10.70;;;8.67;;
15708;SDS011;7954;51.914;8.420;2023-02-15T11:44:00;9.90;;;8.40;;
15708;SDS011;7954;51.914;8.420;2023-02-15T11:46:34;11.60;;;7.13;;
15708;SDS011;7954;51.914;8.420;2023-02-15T11:49:04;11.87;;;9.53;;
15708;SDS011;7954;51.914;8.420;2023-02-15T11:51:37;9.93;;;8.70;;
15708;SDS011;7954;51.914;8.420;2023-02-15T11:54:05;10.17;;;7.80;;
15708;SDS011;7954;51.914;8.420;2023-02-15T11:56:37;10.63;;;8.37;;
15708;SDS011;7954;51.914;8.420;2023-02-15T11:59:06;10.23;;;8.93;;
15708;SDS011;7954;51.914;8.420;2023-02-15T12:01:40;11.37;;;9.60;;
15708;SDS011;7954;51.914;8.420;2023-02-15T12:04:13;11.07;;;9.30;;
15708;SDS011;7954;51.914;8.420;2023-02-15T12:06:49;12.33;;;9.53;;
15708;SDS011;7954;51.914;8.420;2023-02-15T12:09:29;14.93;;;9.97;;
15708;SDS011;7954;51.914;8.420;2023-02-15T12:12:22;15.47;;;9.87;;
15708;SDS011;7954;51.914;8.420;2023-02-15T12:14:52;11.70;;;9.43;;
15708;SDS011;7954;51.914;8.420;2023-02-15T12:17:22;11.73;;;9.83;;
15708;SDS011;7954;51.914;8.420;2023-02-15T12:19:51;11.70;;;9.37;;
15708;SDS011;7954;51.914;8.420;2023-02-15T12:22:22;12.80;;;9.37;;
15708;SDS011;7954;51.914;8.420;2023-02-15T12:24:52;12.57;;;9.73;;
15708;SDS011;7954;51.914;8.420;2023-02-15T12:27:25;12.00;;;9.90;;
15708;SDS011;7954;51.914;8.420;2023-02-15T12:29:56;11.83;;;9.83;;
15708;SDS011;7954;51.914;8.420;2023-02-15T12:32:27;13.30;;;10.60;;
15708;SDS011;7954;51.914;8.420;2023-02-15T12:34:59;14.20;;;10.33;;
15708;SDS011;7954;51.914;8.420;2023-02-15T12:37:30;13.37;;;9.93;;
15708;SDS011;7954;51.914;8.420;2023-02-15T12:40:02;12.33;;;9.93;;
15708;SDS011;7954;51.914;8.420;2023-02-15T12:42:46;12.00;;;10.23;;
15708;SDS011;7954;51.914;8.420;2023-02-15T12:45:22;13.83;;;10.47;;
15708;SDS011;7954;51.914;8.420;2023-02-15T12:48:10;16.13;;;10.73;;
15708;SDS011;7954;51.914;8.420;2023-02-15T12:50:43;11.97;;;10.10;;
15708;SDS011;7954;51.914;8.420;2023-02-15T12:53:32;16.27;;;11.30;;
15708;SDS011;7954;51.914;8.420;2023-02-15T12:56:02;15.27;;;11.53;;
15708;SDS011;7954;51.914;8.420;2023-02-15T12:58:33;13.40;;;11.10;;
15708;SDS011;7954;51.914;8.420;2023-02-15T13:01:02;15.73;;;11.30;;
15708;SDS011;7954;51.914;8.420;2023-02-15T13:03:39;14.63;;;11.60;;
15708;SDS011;7954;51.914;8.420;2023-02-15T13:06:26;15.40;;;12.97;;
15708;SDS011;7954;51.914;8.420;2023-02-15T13:08:55;16.17;;;12.43;;
15708;SDS011;7954;51.914;8.420;2023-02-15T13:11:25;13.97;;;11.70;;
15708;SDS011;7954;51.914;8.420;2023-02-15T13:14:02;14.80;;;11.37;;
15708;SDS011;7954;51.914;8.420;2023-02-15T13:16:44;12.80;;;10.67;;
15708;SDS011;7954;51.914;8.420;2023-02-15T13:19:15;12.83;;;11.13;;
15708;SDS011;7954;51.914;8.420;2023-02-15T13:21:45;14.57;;;12.67;;
15708;SDS011;7954;51.914;8.420;2023-02-15T13:24:17;15.30;;;12.47;;
15708;SDS011;7954;51.914;8.420;2023-02-15T13:26:50;16.07;;;12.07;;
15708;SDS011;7954;51.914;8.420;2023-02-15T13:29:39;16.60;;;12.27;;
15708;SDS011;7954;51.914;8.420;2023-02-15T13:32:12;13.73;;;11.67;;
15708;SDS011;7954;51.914;8.420;2023-02-15T13:34:57;14.43;;;11.73;;
15708;SDS011;7954;51.914;8.420;2023-02-15T13:37:37;13.53;;;12.10;;
15708;SDS011;7954;51.914;8.420;2023-02-15T13:40:22;14.53;;;12.37;;
15708;SDS011;7954;51.914;8.420;2023-02-15T13:42:55;13.43;;;11.80;;
15708;SDS011;7954;51.914;8.420;2023-02-15T13:45:33;16.13;;;12.93;;
15708;SDS011;7954;51.914;8.420;2023-02-15T13:48:12;15.70;;;12.73;;
15708;SDS011;7954;51.914;8.420;2023-02-15T13:50:51;17.43;;;12.40;;
15708;SDS011;7954;51.914;8.420;2023-02-15T13:53:31;14.37;;;12.77;;
15708;SDS011;7954;51.914;8.420;2023-02-15T13:56:10;15.90;;;13.00;;
15708;SDS011;7954;51.914;8.420;2023-02-15T13:58:54;13.97;;;11.87;;
15708;SDS011;7954;51.914;8.420;2023-02-15T14:01:36;13.60;;;12.10;;
15708;SDS011;7954;51.914;8.420;2023-02-15T14:04:23;14.27;;;12.37;;
15708;SDS011;7954;51.914;8.420;2023-02-15T14:07:09;15.33;;;13.60;;
15708;SDS011;7954;51.914;8.420;2023-02-15T14:09:47;15.80;;;12.93;;
15708;SDS011;7954;51.914;8.420;2023-02-15T14:12:26;16.17;;;13.20;;
15708;SDS011;7954;51.914;8.420;2023-02-15T14:15:08;15.83;;;13.20;;
15708;SDS011;7954;51.914;8.420;2023-02-15T14:17:53;13.40;;;12.00;;
15708;SDS011;7954;51.914;8.420;2023-02-15T14:20:32;13.27;;;11.87;;
15708;SDS011;7954;51.914;8.420;2023-02-15T14:23:11;14.40;;;12.90;;
15708;SDS011;7954;51.914;8.420;2023-02-15T14:25:55;14.87;;;12.93;;
15708;SDS011;7954;51.914;8.420;2023-02-15T14:28:27;13.73;;;12.10;;
15708;SDS011;7954;51.914;8.420;2023-02-15T14:30:59;14.83;;;12.33;;
15708;SDS011;7954;51.914;8.420;2023-02-15T14:33:33;13.07;;;10.63;;
15708;SDS011;7954;51.914;8.420;2023-02-15T14:36:07;12.63;;;11.03;;
15708;SDS011;7954;51.914;8.420;2023-02-15T14:38:51;12.20;;;10.90;;
15708;SDS011;7954;51.914;8.420;2023-02-15T14:41:29;14.27;;;11.20;;
15708;SDS011;7954;51.914;8.420;2023-02-15T14:44:07;13.50;;;10.73;;
15708;SDS011;7954;51.914;8.420;2023-02-15T14:46:42;13.43;;;11.27;;
15708;SDS011;7954;51.914;8.420;2023-02-15T14:49:17;14.93;;;12.07;;
15708;SDS011;7954;51.914;8.420;2023-02-15T14:51:56;12.10;;;10.77;;
15708;SDS011;7954;51.914;8.420;2023-02-15T14:57:32;12.67;;;10.80;;
15708;SDS011;7954;51.914;8.420;2023-02-15T15:03:00;11.53;;;9.93;;
15708;SDS011;7954;51.914;8.420;2023-02-15T15:05:32;12.10;;;10.80;;
15708;SDS011;7954;51.914;8.420;2023-02-15T15:08:03;9.63;;;8.60;;
15708;SDS011;7954;51.914;8.420;2023-02-15T15:10:33;11.57;;;8.70;;
15708;SDS011;7954;51.914;8.420;2023-02-15T15:16:29;11.00;;;9.60;;
15708;SDS011;7954;51.914;8.420;2023-02-15T15:19:56;10.83;;;9.70;;
15708;SDS011;7954;51.914;8.420;2023-02-15T15:22:41;10.20;;;9.20;;
15708;SDS011;7954;51.914;8.420;2023-02-15T15:25:11;12.60;;;9.27;;
15708;SDS011;7954;51.914;8.420;2023-02-15T15:31:24;9.70;;;8.70;;
15708;SDS011;7954;51.914;8.420;2023-02-15T15:34:10;11.33;;;8.83;;
15708;SDS011;7954;51.914;8.420;2023-02-15T15:37:10;12.00;;;8.53;;
15708;SDS011;7954;51.914;8.420;2023-02-15T15:46:45;10.20;;;8.73;;
15708;SDS011;7954;51.914;8.420;2023-02-15T15:49:27;10.47;;;9.03;;
15708;SDS011;7954;51.914;8.420;2023-02-15T15:51:59;10.87;;;9.77;;
15708;SDS011;7954;51.914;8.420;2023-02-15T15:54:28;12.30;;;9.53;;
15708;SDS011;7954;51.914;8.420;2023-02-15T15:57:00;11.27;;;8.90;;
15708;SDS011;7954;51.914;8.420;2023-02-15T15:59:33;11.63;;;9.53;;
15708;SDS011;7954;51.914;8.420;2023-02-15T16:02:05;10.27;;;9.17;;
15708;SDS011;7954;51.914;8.420;2023-02-15T16:04:34;12.37;;;8.83;;